Aviation Digital Data Service (ADDS)

Output produced by METARs form (1055 UTC 20 September 2019)
found at http://aviationweather.gov/metar/data/
 
METAR text: KCHD 200347Z 28003KT 10SM CLR 32/03 A2969 RMK LAST
Conditions at: KCHD (CHANDLER , AZ, US) observed 0347 UTC 20 September 2019
Temperature: 32.0°C (90°F)
Dewpoint: 3.0°C (37°F) [RH = 16%]
Pressure (altimeter): 29.69 inches Hg (1005.5 mb)
Winds: from the W (280 degrees) at 3 MPH (3 knots; 1.5 m/s)
Visibility: 10 or more miles (16+ km)
Ceiling: at least 12,000 feet AGL
Clouds: sky clear below 12,000 feet AGL
Weather: no significant weather observed at this time

METAR text: KCHD 200247Z 30005KT 10SM CLR 33/06 A2968
Conditions at: KCHD (CHANDLER , AZ, US) observed 0247 UTC 20 September 2019
Temperature: 33.0°C (91°F)
Dewpoint: 6.0°C (43°F) [RH = 19%]
Pressure (altimeter): 29.68 inches Hg (1005.2 mb)
Winds: from the WNW (300 degrees) at 6 MPH (5 knots; 2.6 m/s)
Visibility: 10 or more miles (16+ km)
Ceiling: at least 12,000 feet AGL
Clouds: sky clear below 12,000 feet AGL
Weather: no significant weather observed at this time

METAR text: KCHD 200147Z 24009KT 10SM CLR 34/07 A2966
Conditions at: KCHD (CHANDLER , AZ, US) observed 0147 UTC 20 September 2019
Temperature: 34.0°C (93°F)
Dewpoint: 7.0°C (45°F) [RH = 19%]
Pressure (altimeter): 29.66 inches Hg (1004.5 mb)
Winds: from the WSW (240 degrees) at 10 MPH (9 knots; 4.6 m/s)
Visibility: 10 or more miles (16+ km)
Ceiling: at least 12,000 feet AGL
Clouds: sky clear below 12,000 feet AGL
Weather: no significant weather observed at this time

METAR text: KCHD 200047Z 23004KT 10SM CLR 36/07 A2966
Conditions at: KCHD (CHANDLER , AZ, US) observed 0047 UTC 20 September 2019
Temperature: 36.0°C (97°F)
Dewpoint: 7.0°C (45°F) [RH = 17%]
Pressure (altimeter): 29.66 inches Hg (1004.5 mb)
Winds: from the SW (230 degrees) at 5 MPH (4 knots; 2.1 m/s)
Visibility: 10 or more miles (16+ km)
Ceiling: at least 12,000 feet AGL
Clouds: sky clear below 12,000 feet AGL
Weather: no significant weather observed at this time

METAR text: KCHD 192347Z 25012KT 10SM CLR 37/08 A2967
Conditions at: KCHD (CHANDLER , AZ, US) observed 2347 UTC 19 September 2019
Temperature: 37.0°C (99°F)
Dewpoint: 8.0°C (46°F) [RH = 17%]
Pressure (altimeter): 29.67 inches Hg (1004.8 mb)
Winds: from the WSW (250 degrees) at 14 MPH (12 knots; 6.2 m/s)
Visibility: 10 or more miles (16+ km)
Ceiling: at least 12,000 feet AGL
Clouds: sky clear below 12,000 feet AGL
Weather: no significant weather observed at this time